Time;durP1;ratioP1;P1;durP2;ratioP2;P2;SDS_P1;SDS_P2;PMS_P1;PMS_P2;Temp;Humidity;BMP_temperature;BMP_pressure;BME280_temperature;BME280_humidity;BME280_pressure;Samples;Min_cycle;Max_cycle;Signal;HPM_P1;HPM_P2
2022/10/05 00:08:36;;;;;;;5.93;4.17;;;16.70;99.90;;;;;;7883644;74;26811;-56
2022/10/05 00:18:39;;;;;;;7.63;4.40;;;16.70;99.90;;;;;;7859237;74;27304;-57
2022/10/05 00:28:41;;;;;;;7.67;3.83;;;16.60;99.90;;;;;;7848656;74;26232;-56
2022/10/05 00:38:44;;;;;;;11.30;3.97;;;16.70;99.90;;;;;;7872173;74;26683;-56
2022/10/05 00:49:01;;;;;;;11.23;4.10;;;16.70;99.90;;;;;;7856938;74;26901;-57
2022/10/05 00:59:32;;;;;;;19.93;4.03;;;16.70;99.90;;;;;;7904469;74;26775;-54
2022/10/05 01:09:46;;;;;;;24.80;4.47;;;16.70;99.90;;;;;;7861551;74;26797;-53
2022/10/05 01:20:04;;;;;;;9.53;3.83;;;16.70;99.90;;;;;;7852604;74;26733;-55
2022/10/05 01:30:09;;;;;;;12.57;4.53;;;16.60;99.90;;;;;;7826315;74;26649;-52
2022/10/05 01:40:26;;;;;;;7.03;3.80;;;16.30;99.90;;;;;;7781686;74;26331;-52
2022/10/05 01:50:40;;;;;;;13.43;4.13;;;16.50;99.90;;;;;;7836678;74;26278;-54
2022/10/05 02:00:46;;;;;;;8.63;3.90;;;16.10;99.90;;;;;;7921081;74;26339;-54
2022/10/05 02:10:51;;;;;;;10.90;4.20;;;16.30;99.90;;;;;;7867702;74;26231;-55
2022/10/05 02:20:56;;;;;;;9.70;3.90;;;16.30;99.90;;;;;;7921987;74;26223;-55
2022/10/05 02:31:01;;;;;;;5.70;3.13;;;16.30;99.90;;;;;;7858188;73;26306;-52
2022/10/05 02:41:25;;;;;;;7.77;3.00;;;16.30;99.90;;;;;;7860021;74;26677;-56
2022/10/05 02:51:33;;;;;;;5.60;3.10;;;16.30;99.90;;;;;;7839854;74;26232;-54
2022/10/05 03:01:44;;;;;;;4.40;2.83;;;16.30;99.90;;;;;;7854031;73;26315;-54
2022/10/05 03:11:55;;;;;;;4.07;3.47;;;16.30;99.90;;;;;;7830360;74;26248;-53
2022/10/05 03:22:17;;;;;;;3.33;2.70;;;16.30;99.90;;;;;;7830417;74;26758;-54
2022/10/05 03:32:32;;;;;;;6.73;3.67;;;16.30;99.90;;;;;;7808631;73;26236;-52
2022/10/05 03:42:46;;;;;;;3.47;2.77;;;16.30;99.90;;;;;;7912203;74;26207;-53
2022/10/05 03:52:54;;;;;;;3.20;2.60;;;16.20;99.90;;;;;;7852283;74;26221;-56
2022/10/05 04:03:11;;;;;;;6.17;3.40;;;16.20;99.90;;;;;;7870818;74;26313;-56
2022/10/05 04:13:19;;;;;;;5.80;3.50;;;16.20;99.90;;;;;;7856091;74;26237;-55
2022/10/05 04:23:45;;;;;;;5.10;3.10;;;16.20;99.90;;;;;;7824054;75;26545;-55
2022/10/05 04:33:50;;;;;;;6.57;3.30;;;16.20;99.90;;;;;;7900899;74;26266;-55
2022/10/05 04:44:21;;;;;;;3.43;2.70;;;16.20;99.90;;;;;;7874269;74;26241;-54
2022/10/05 04:54:32;;;;;;;12.03;3.90;;;16.20;99.90;;;;;;7834744;74;26303;-54
2022/10/05 05:04:46;;;;;;;11.17;3.87;;;16.10;99.90;;;;;;7869878;74;26750;-55
2022/10/05 05:15:01;;;;;;;10.00;3.90;;;16.20;99.90;;;;;;7856546;73;26769;-54
2022/10/05 05:25:21;;;;;;;14.43;4.43;;;16.10;99.90;;;;;;7819457;74;26360;-56
2022/10/05 05:35:38;;;;;;;6.73;3.47;;;16.00;99.90;;;;;;7839663;74;26271;-57
2022/10/05 05:45:44;;;;;;;6.40;3.40;;;16.20;99.90;;;;;;7834712;73;26241;-55
2022/10/05 05:55:49;;;;;;;5.20;3.90;;;16.20;99.90;;;;;;7802426;73;26321;-57
2022/10/05 06:06:00;;;;;;;5.03;2.50;;;16.20;99.90;;;;;;7833986;74;26665;-56
2022/10/05 06:16:31;;;;;;;4.63;3.13;;;16.20;99.90;;;;;;7862204;74;26223;-55
2022/10/05 06:26:46;;;;;;;8.13;3.07;;;16.30;99.90;;;;;;7894384;74;26235;-59
2022/10/05 06:36:57;;;;;;;10.73;5.57;;;16.30;99.90;;;;;;7848537;73;26245;-54
2022/10/05 06:47:06;;;;;;;22.67;4.97;;;16.30;99.90;;;;;;7852458;74;26341;-55
2022/10/05 06:57:36;;;;;;;17.13;5.93;;;16.10;99.90;;;;;;7842409;74;26255;-54
2022/10/05 07:07:51;;;;;;;16.50;5.83;;;15.90;99.90;;;;;;7828061;74;26318;-54
2022/10/05 07:18:18;;;;;;;14.13;4.90;;;16.10;99.90;;;;;;7834047;74;26580;-57
2022/10/05 07:28:55;;;;;;;6.97;3.47;;;16.10;99.90;;;;;;7866189;74;26262;-54
2022/10/05 07:39:01;;;;;;;10.87;3.33;;;16.30;99.90;;;;;;7879823;74;26254;-57
2022/10/05 07:49:09;;;;;;;6.27;2.40;;;16.50;99.90;;;;;;7881433;74;26869;-55
2022/10/05 07:59:31;;;;;;;6.27;2.93;;;16.60;99.90;;;;;;7866196;73;26303;-56
2022/10/05 08:09:48;;;;;;;10.87;3.60;;;16.80;99.90;;;;;;7843908;73;26223;-58
2022/10/05 08:20:02;;;;;;;9.97;3.50;;;16.90;99.90;;;;;;7847057;74;26241;-54
2022/10/05 08:30:08;;;;;;;9.40;3.03;;;17.10;99.90;;;;;;7853504;73;26239;-56
2022/10/05 08:40:25;;;;;;;8.40;3.07;;;17.10;99.90;;;;;;7834147;73;26219;-57
2022/10/05 08:50:45;;;;;;;6.10;2.70;;;17.20;99.90;;;;;;7850481;74;26257;-56
2022/10/05 09:00:57;;;;;;;3.40;2.20;;;17.20;99.90;;;;;;7823106;73;26253;-55
2022/10/05 09:11:22;;;;;;;5.57;2.57;;;17.30;99.90;;;;;;7850427;73;26211;-57
2022/10/05 09:21:40;;;;;;;6.80;2.87;;;17.50;99.90;;;;;;7853418;73;26224;-56
2022/10/05 09:32:05;;;;;;;7.57;3.20;;;17.70;99.90;;;;;;7864939;74;26249;-57
2022/10/05 09:42:32;;;;;;;8.63;3.00;;;17.90;99.90;;;;;;7821925;74;26217;-56
2022/10/05 09:53:11;;;;;;;8.30;3.93;;;18.00;99.90;;;;;;7818894;73;26619;-58
2022/10/05 10:03:31;;;;;;;5.13;3.50;;;18.10;99.90;;;;;;7830613;74;26297;-58
2022/10/05 10:14:00;;;;;;;10.97;4.60;;;18.20;99.90;;;;;;7882097;74;26255;-57
2022/10/05 10:24:14;;;;;;;11.73;4.07;;;18.20;99.90;;;;;;7831439;73;26245;-55
2022/10/05 10:34:41;;;;;;;11.90;4.90;;;18.30;99.90;;;;;;7831451;73;26361;-59
2022/10/05 10:44:52;;;;;;;10.83;4.23;;;18.30;99.90;;;;;;7848207;73;26312;-59
2022/10/05 10:55:20;;;;;;;7.30;4.00;;;18.30;99.90;;;;;;7844605;74;26705;-59
2022/10/05 11:05:45;;;;;;;6.70;3.93;;;18.30;99.90;;;;;;7884444;74;26211;-58
2022/10/05 11:16:13;;;;;;;5.23;3.60;;;18.30;99.90;;;;;;7781626;73;26246;-56
2022/10/05 11:26:35;;;;;;;6.60;3.93;;;18.30;99.90;;;;;;7829478;73;26684;-56
2022/10/05 11:37:00;;;;;;;7.53;4.03;;;18.30;99.90;;;;;;7859902;74;26251;-56
2022/10/05 11:47:17;;;;;;;7.53;4.27;;;18.40;99.90;;;;;;7850083;74;26288;-57
2022/10/05 11:57:31;;;;;;;9.87;4.67;;;18.40;99.90;;;;;;7855524;74;26248;-55
2022/10/05 12:07:46;;;;;;;8.67;4.80;;;18.40;99.90;;;;;;7872954;74;26285;-56
2022/10/05 12:17:57;;;;;;;7.40;4.23;;;18.50;99.90;;;;;;7863360;74;26466;-56
2022/10/05 12:28:03;;;;;;;6.10;3.77;;;18.50;99.90;;;;;;7861551;74;26294;-57
2022/10/05 12:38:11;;;;;;;7.70;4.33;;;18.50;99.90;;;;;;7840819;73;27116;-55
2022/10/05 12:48:29;;;;;;;5.60;3.70;;;18.60;99.90;;;;;;7867846;74;27106;-57
2022/10/05 12:58:52;;;;;;;4.93;3.07;;;18.50;99.90;;;;;;7856439;74;26354;-57
2022/10/05 13:09:01;;;;;;;13.27;7.40;;;18.60;99.90;;;;;;7831875;73;26243;-57
2022/10/05 13:19:32;;;;;;;10.10;6.37;;;18.60;99.90;;;;;;7826988;73;26425;-57
2022/10/05 13:29:41;;;;;;;18.90;9.47;;;18.60;99.90;;;;;;7871098;74;26765;-56
2022/10/05 13:39:58;;;;;;;15.27;8.80;;;18.60;99.90;;;;;;7864620;74;26286;-56
2022/10/05 13:50:15;;;;;;;14.27;7.13;;;18.70;99.90;;;;;;7865263;74;26690;-56
2022/10/05 14:00:23;;;;;;;11.40;6.93;;;18.70;99.90;;;;;;7840946;74;26243;-56
2022/10/05 14:10:43;;;;;;;10.67;5.77;;;18.70;99.90;;;;;;7861862;74;26264;-58
2022/10/05 14:21:03;;;;;;;12.13;5.57;;;18.70;99.90;;;;;;7839077;74;26219;-55
2022/10/05 14:31:14;;;;;;;8.87;5.90;;;18.70;99.90;;;;;;7852575;74;26241;-56
2022/10/05 14:41:23;;;;;;;8.97;5.10;;;18.70;99.90;;;;;;7832990;74;26238;-57
2022/10/05 14:51:29;;;;;;;6.37;4.00;;;18.80;99.90;;;;;;7836792;74;26300;-56
2022/10/05 15:01:38;;;;;;;8.33;4.40;;;18.70;99.90;;;;;;7865530;74;26237;-57
2022/10/05 15:11:43;;;;;;;6.33;4.00;;;18.70;99.90;;;;;;7845813;74;26248;-58
2022/10/05 15:22:00;;;;;;;5.97;3.70;;;18.70;99.90;;;;;;7836575;74;26353;-56
2022/10/05 15:32:14;;;;;;;5.43;3.53;;;18.70;99.90;;;;;;7873121;74;26315;-57
2022/10/05 15:42:37;;;;;;;9.27;3.97;;;18.80;99.90;;;;;;7864856;74;26228;-57
2022/10/05 15:52:54;;;;;;;6.87;4.17;;;18.80;99.90;;;;;;7830457;74;26240;-56
2022/10/05 16:03:23;;;;;;;6.60;3.80;;;18.80;99.90;;;;;;7849587;74;27120;-57
2022/10/05 16:13:32;;;;;;;5.63;3.50;;;18.80;99.90;;;;;;7876894;74;26250;-55
2022/10/05 16:23:42;;;;;;;8.43;3.20;;;18.70;99.90;;;;;;7837505;74;26742;-56
2022/10/05 16:33:56;;;;;;;5.80;3.13;;;18.80;99.90;;;;;;7896312;74;27174;-57
2022/10/05 16:44:27;;;;;;;6.53;2.80;;;18.70;99.90;;;;;;7810248;74;26807;-55
2022/10/05 16:54:41;;;;;;;10.93;2.83;;;18.70;99.90;;;;;;7839814;74;26226;-58
2022/10/05 17:04:56;;;;;;;10.70;3.43;;;18.70;99.90;;;;;;7811618;73;26301;-57
2022/10/05 17:15:09;;;;;;;7.73;3.57;;;18.70;99.90;;;;;;7903195;74;26254;-59
2022/10/05 17:25:26;;;;;;;16.13;4.43;;;18.70;99.90;;;;;;7890509;74;26298;-55
2022/10/05 17:36:07;;;;;;;7.10;3.47;;;18.70;99.90;;;;;;7899889;74;26395;-55
2022/10/05 17:46:09;;;;;;;13.83;4.40;;;18.60;99.90;;;;;;7908437;73;26735;-58
2022/10/05 17:56:11;;;;;;;13.80;3.60;;;18.60;99.90;;;;;;7908219;73;26347;-57
2022/10/05 18:06:36;;;;;;;8.73;3.10;;;18.60;99.90;;;;;;7839513;74;26300;-55
2022/10/05 18:17:05;;;;;;;15.27;4.93;;;18.60;99.90;;;;;;7787495;74;26290;-57
2022/10/05 18:27:23;;;;;;;18.10;4.47;;;18.60;99.90;;;;;;7842249;73;26755;-54
2022/10/05 18:37:53;;;;;;;17.03;4.60;;;18.60;99.90;;;;;;7818040;74;26357;-54
2022/10/05 18:48:33;;;;;;;17.77;3.70;;;18.60;99.90;;;;;;7832473;74;26752;-57
2022/10/05 18:58:48;;;;;;;83.50;9.20;;;18.60;99.90;;;;;;7810439;73;26879;-51
2022/10/05 19:09:24;;;;;;;73.33;10.00;;;18.70;99.90;;;;;;7848702;73;26282;-56
2022/10/05 19:19:58;;;;;;;28.40;3.87;;;18.70;99.90;;;;;;7885915;73;26292;-55
2022/10/05 19:30:22;;;;;;;20.90;5.00;;;18.70;99.90;;;;;;7848743;73;26755;-58
2022/10/05 19:40:47;;;;;;;24.83;4.33;;;18.80;99.90;;;;;;7862292;74;26266;-55
2022/10/05 19:50:53;;;;;;;17.23;3.73;;;18.80;99.90;;;;;;7809336;74;27215;-53
2022/10/05 20:01:00;;;;;;;26.97;4.30;;;18.80;99.90;;;;;;7850833;74;26308;-58
2022/10/05 20:11:14;;;;;;;13.17;3.87;;;18.80;99.90;;;;;;7844649;74;26285;-57
2022/10/05 20:21:39;;;;;;;14.40;3.23;;;18.90;99.90;;;;;;7909550;73;26289;-52
2022/10/05 20:31:42;;;;;;;15.60;3.27;;;18.90;99.90;;;;;;7850570;73;27494;-54
2022/10/05 20:41:45;;;;;;;8.00;2.87;;;18.90;99.90;;;;;;7847578;74;26832;-54
2022/10/05 20:51:48;;;;;;;9.80;3.00;;;19.00;99.90;;;;;;7863756;74;26410;-53
2022/10/05 21:01:51;;;;;;;15.17;2.87;;;19.00;99.90;;;;;;7866342;74;26775;-57
2022/10/05 21:11:54;;;;;;;8.27;3.17;;;19.00;99.90;;;;;;7873486;74;26734;-56
2022/10/05 21:21:57;;;;;;;6.83;2.60;;;19.00;99.90;;;;;;7901999;73;26272;-54
2022/10/05 21:32:00;;;;;;;8.63;2.57;;;19.10;99.90;;;;;;7860219;73;26575;-55
2022/10/05 21:42:03;;;;;;;7.77;2.40;;;19.10;99.90;;;;;;7861508;74;26694;-53
2022/10/05 21:52:06;;;;;;;11.90;3.50;;;19.10;99.90;;;;;;7819510;74;26521;-55
2022/10/05 22:02:08;;;;;;;6.17;3.17;;;19.10;99.90;;;;;;7865910;74;26265;-56
2022/10/05 22:12:10;;;;;;;8.00;2.77;;;19.10;99.90;;;;;;7885930;74;27021;-53
2022/10/05 22:22:13;;;;;;;13.90;2.57;;;19.10;99.90;;;;;;7942319;73;26223;-54
2022/10/05 22:32:16;;;;;;;9.77;2.60;;;19.10;99.90;;;;;;7935077;74;26258;-56
2022/10/05 22:42:18;;;;;;;31.03;5.00;;;19.10;99.90;;;;;;7851250;74;26323;-54
2022/10/05 22:52:21;;;;;;;20.73;3.80;;;19.20;99.90;;;;;;7851784;74;26282;-53
2022/10/05 23:02:23;;;;;;;20.50;3.07;;;19.20;99.90;;;;;;7871333;74;26285;-52
2022/10/05 23:12:26;;;;;;;9.37;2.73;;;19.20;99.90;;;;;;7828478;74;27155;-52
2022/10/05 23:22:28;;;;;;;9.27;2.83;;;19.20;99.90;;;;;;7862072;73;26261;-54
2022/10/05 23:32:31;;;;;;;7.57;2.40;;;19.10;99.90;;;;;;7850072;74;26738;-56
2022/10/05 23:42:33;;;;;;;11.03;2.50;;;19.10;99.90;;;;;;7918099;73;26226;-57
2022/10/05 23:52:37;;;;;;;6.07;2.67;;;19.10;99.90;;;;;;7888329;73;26745;-58
